createdAt,value
2019-05-26T00:00:45.176Z,81.12
2019-05-26T00:03:14.882Z,80.47
2019-05-26T00:05:45.057Z,80.56
2019-05-26T00:08:14.681Z,81.06
2019-05-26T00:10:44.456Z,81.36
2019-05-26T00:13:14.147Z,81.11
2019-05-26T00:15:44.626Z,81.33
2019-05-26T00:18:14.257Z,81.06
2019-05-26T00:20:44.657Z,81.05
2019-05-26T00:23:14.290Z,81.07
2019-05-26T00:25:44.381Z,81.22
2019-05-26T00:28:14.014Z,81.17
2019-05-26T00:30:43.675Z,81.12
2019-05-26T00:33:13.563Z,81.01
2019-05-26T00:35:43.424Z,80.74
2019-05-26T00:38:13.150Z,80.75
2019-05-26T00:40:43.039Z,81.17
2019-05-26T00:43:12.671Z,81.56
2019-05-26T00:45:42.330Z,81.40
2019-05-26T00:48:12.087Z,81.39
2019-05-26T00:50:41.931Z,81.18
2019-05-26T00:53:11.641Z,81.37
2019-05-26T00:55:41.710Z,81.18
2019-05-26T00:58:11.336Z,81.00
2019-05-26T01:00:43.343Z,80.65
2019-05-26T01:03:13.238Z,80.86
2019-05-26T01:05:43.104Z,81.17
2019-05-26T01:08:14.157Z,81.13
2019-05-26T01:10:45.369Z,81.19
2019-05-26T01:13:17.051Z,81.73
2019-05-26T01:15:48.369Z,81.21
2019-05-26T01:18:19.441Z,81.14
2019-05-26T01:20:50.698Z,81.33
2019-05-26T01:23:20.322Z,81.43
2019-05-26T01:25:49.992Z,81.08
2019-05-26T01:28:19.706Z,81.25
2019-05-26T01:30:49.530Z,80.91
2019-05-26T01:33:19.163Z,81.20
2019-05-26T01:35:49.201Z,80.14
2019-05-26T01:38:24.256Z,80.54
2019-05-26T01:40:51.428Z,80.79
2019-05-26T01:43:21.061Z,79.96
2019-05-26T01:45:52.716Z,79.43
2019-05-26T01:48:22.341Z,79.71
2019-05-26T01:50:52.007Z,79.15
2019-05-26T01:53:21.736Z,79.06
2019-05-26T01:55:51.382Z,79.52
2019-05-26T01:58:21.039Z,79.01
2019-05-26T02:00:51.546Z,79.08
2019-05-26T02:03:21.272Z,78.71
2019-05-26T02:05:51.002Z,78.94
2019-05-26T02:08:20.642Z,78.91
2019-05-26T02:10:50.377Z,78.72
2019-05-26T02:13:20.009Z,78.92
2019-05-26T02:15:49.721Z,78.75
2019-05-26T02:18:19.366Z,78.87
2019-05-26T02:20:49.012Z,79.03
2019-05-26T02:23:18.639Z,79.39
2019-05-26T02:25:48.862Z,79.52
2019-05-26T02:28:18.499Z,79.79
2019-05-26T02:30:48.852Z,80.37
2019-05-26T02:33:18.485Z,80.59
2019-05-26T02:35:48.135Z,80.77
2019-05-26T02:38:17.766Z,81.01
2019-05-26T02:40:47.419Z,80.42
2019-05-26T02:43:17.343Z,80.33
2019-05-26T02:45:47.567Z,80.41
2019-05-26T02:48:17.426Z,80.48
2019-05-26T02:50:47.715Z,80.22
2019-05-26T02:53:24.298Z,80.02
2019-05-26T02:55:50.490Z,79.80
2019-05-26T02:58:20.153Z,79.65
2019-05-26T03:00:49.780Z,79.69
2019-05-26T03:03:19.433Z,79.21
2019-05-26T03:05:49.058Z,79.23
2019-05-26T03:08:18.806Z,79.26
2019-05-26T03:10:50.521Z,79.41
2019-05-26T03:13:20.179Z,79.58
2019-05-26T03:15:49.810Z,79.52
2019-05-26T03:18:19.457Z,79.42
2019-05-26T03:20:49.089Z,79.36
2019-05-26T03:23:18.787Z,79.55
2019-05-26T03:25:49.404Z,79.51
2019-05-26T03:28:19.060Z,79.60
2019-05-26T03:30:48.770Z,79.71
2019-05-26T03:33:18.435Z,79.56
2019-05-26T03:35:48.057Z,79.85
2019-05-26T03:38:17.695Z,79.95
2019-05-26T03:40:47.353Z,80.11
2019-05-26T03:43:17.005Z,80.34
2019-05-26T03:46:07.346Z,80.25
2019-05-26T03:48:37.008Z,80.25
2019-05-26T03:51:06.637Z,80.08
2019-05-26T03:53:36.290Z,80.31
2019-05-26T03:56:05.910Z,79.83
2019-05-26T03:58:35.563Z,79.90
2019-05-26T04:01:05.326Z,79.67
2019-05-26T04:03:34.975Z,79.96
2019-05-26T04:06:04.670Z,80.09
2019-05-26T04:08:34.323Z,80.38
2019-05-26T04:11:04.218Z,80.32
2019-05-26T04:13:33.881Z,80.07
2019-05-26T04:16:03.502Z,80.18
2019-05-26T04:18:33.233Z,80.64
2019-05-26T04:21:02.849Z,80.24
2019-05-26T04:23:32.566Z,79.88
2019-05-26T04:26:02.197Z,80.06
2019-05-26T04:28:31.847Z,79.91
2019-05-26T04:31:01.475Z,80.06
2019-05-26T04:33:31.424Z,80.16
2019-05-26T04:36:01.051Z,79.65
2019-05-26T04:38:30.702Z,79.62
2019-05-26T04:41:00.332Z,79.38
2019-05-26T04:43:30.088Z,79.02
2019-05-26T04:45:59.723Z,78.85
2019-05-26T04:48:29.389Z,79.01
2019-05-26T04:51:00.413Z,78.79
2019-05-26T04:53:30.752Z,78.29
2019-05-26T04:56:00.381Z,77.87
2019-05-26T04:58:30.019Z,78.46
2019-05-26T05:00:59.642Z,77.58
2019-05-26T05:03:29.295Z,78.05
2019-05-26T05:05:58.918Z,77.40
2019-05-26T05:08:28.572Z,77.20
2019-05-26T05:10:58.201Z,77.26
2019-05-26T05:13:27.859Z,77.11
2019-05-26T05:15:57.491Z,76.50
2019-05-26T05:18:27.137Z,76.89
2019-05-26T05:20:56.755Z,76.11
2019-05-26T05:23:26.405Z,75.54
2019-05-26T05:25:56.027Z,75.75
2019-05-26T05:28:25.679Z,76.55
2019-05-26T05:30:55.300Z,75.82
2019-05-26T05:33:24.957Z,75.63
2019-05-26T05:35:55.007Z,74.99
2019-05-26T05:38:24.653Z,73.66
2019-05-26T05:40:59.358Z,74.23
2019-05-26T05:43:25.743Z,74.12
2019-05-26T05:45:55.366Z,74.15
2019-05-26T05:48:25.029Z,73.50
2019-05-26T05:50:54.650Z,73.69
2019-05-26T05:53:24.382Z,73.92
2019-05-26T05:55:54.051Z,74.43
2019-05-26T05:58:23.875Z,74.14
2019-05-26T06:00:53.584Z,74.43
2019-05-26T06:03:23.165Z,73.74
2019-05-26T06:05:52.811Z,73.93
2019-05-26T06:08:22.505Z,74.23
2019-05-26T06:10:52.157Z,73.49
2019-05-26T06:13:21.777Z,72.63
2019-05-26T06:15:51.444Z,72.02
2019-05-26T06:18:21.070Z,72.29
2019-05-26T06:20:50.723Z,72.02
2019-05-26T06:23:20.340Z,70.83
2019-05-26T06:25:49.993Z,71.14
2019-05-26T06:28:19.615Z,71.33
2019-05-26T06:30:49.277Z,71.21
2019-05-26T06:33:18.895Z,71.73
2019-05-26T06:35:48.550Z,70.91
2019-05-26T06:38:18.763Z,71.26
2019-05-26T06:40:48.460Z,70.42
2019-05-26T06:43:18.039Z,71.43
2019-05-26T06:45:47.696Z,69.36
2019-05-26T06:48:17.325Z,69.11
2019-05-26T06:50:46.977Z,68.45
2019-05-26T06:53:16.615Z,68.06
2019-05-26T06:55:46.552Z,68.76
2019-05-26T06:58:16.180Z,69.23
2019-05-26T07:00:46.473Z,67.19
2019-05-26T07:03:16.101Z,69.02
2019-05-26T07:05:46.564Z,69.75
2019-05-26T07:08:16.188Z,67.76
2019-05-26T07:10:46.498Z,66.98
2019-05-26T07:13:16.121Z,65.78
2019-05-26T07:15:46.503Z,65.05
2019-05-26T07:18:16.140Z,66.90
2019-05-26T07:20:45.793Z,64.94
2019-05-26T07:23:15.659Z,62.02
2019-05-26T07:25:45.326Z,61.63
2019-05-26T07:28:15.046Z,61.11
2019-05-26T07:30:45.150Z,62.46
2019-05-26T07:33:14.772Z,61.54
2019-05-26T07:35:45.038Z,60.98
2019-05-26T07:38:14.664Z,60.12
2019-05-26T07:40:44.313Z,59.23
2019-05-26T07:43:13.935Z,58.67
2019-05-26T07:45:43.597Z,58.44
2019-05-26T07:48:13.221Z,58.81
2019-05-26T07:50:43.385Z,60.30
2019-05-26T07:53:13.010Z,58.82
2019-05-26T07:55:42.806Z,59.31
2019-05-26T07:58:12.534Z,57.79
2019-05-26T08:00:42.192Z,57.90
2019-05-26T08:03:12.717Z,58.05
2019-05-26T08:05:42.420Z,58.35
2019-05-26T08:08:13.710Z,56.58
2019-05-26T08:10:43.572Z,56.90
2019-05-26T08:13:13.295Z,55.62
2019-05-26T08:15:43.373Z,56.11
2019-05-26T08:18:13.102Z,55.38
2019-05-26T08:20:43.540Z,55.12
2019-05-26T08:23:13.124Z,55.20
2019-05-26T08:25:42.911Z,56.63
2019-05-26T08:28:12.612Z,56.33
2019-05-26T08:30:42.260Z,56.63
2019-05-26T08:33:11.905Z,55.29
2019-05-26T08:35:41.952Z,55.45
2019-05-26T08:38:11.681Z,54.31
2019-05-26T08:40:41.301Z,54.96
2019-05-26T08:43:11.027Z,52.67
2019-05-26T08:45:40.660Z,53.89
2019-05-26T08:48:10.315Z,52.48
2019-05-26T08:50:39.940Z,53.63
2019-05-26T08:53:09.594Z,53.87
2019-05-26T08:55:39.215Z,52.49
2019-05-26T08:58:08.977Z,51.89
2019-05-26T09:00:38.601Z,53.70
2019-05-26T09:03:08.256Z,52.44
2019-05-26T09:05:37.879Z,51.60
2019-05-26T09:08:08.367Z,51.56
2019-05-26T09:10:38.044Z,51.61
2019-05-26T09:13:07.799Z,51.91
2019-05-26T09:15:37.417Z,50.58
2019-05-26T09:18:07.178Z,50.79
2019-05-26T09:20:36.996Z,50.27
2019-05-26T09:23:06.646Z,50.65
2019-05-26T09:25:36.269Z,51.30
2019-05-26T09:28:05.931Z,50.51
2019-05-26T09:30:35.551Z,49.90
2019-05-26T09:33:05.216Z,49.28
2019-05-26T09:35:34.837Z,50.37
2019-05-26T09:38:04.494Z,49.02
2019-05-26T09:40:34.108Z,48.96
2019-05-26T09:43:15.530Z,50.26
2019-05-26T09:45:35.159Z,50.20
2019-05-26T09:48:04.805Z,48.02
2019-05-26T09:50:34.441Z,47.36
2019-05-26T09:53:04.183Z,48.65
2019-05-26T09:55:33.802Z,47.96
2019-05-26T09:58:04.605Z,48.60
2019-05-26T10:00:34.334Z,48.24
2019-05-26T10:03:04.628Z,47.92
2019-05-26T10:05:34.229Z,48.62
2019-05-26T10:08:03.883Z,48.09
2019-05-26T10:10:33.509Z,47.23
2019-05-26T10:13:03.301Z,46.32
2019-05-26T10:15:33.519Z,47.16
2019-05-26T10:18:03.185Z,45.55
2019-05-26T10:20:32.905Z,45.58
2019-05-26T10:23:02.552Z,45.53
2019-05-26T10:25:32.277Z,45.36
2019-05-26T10:28:01.925Z,45.35
2019-05-26T10:30:31.626Z,42.80
2019-05-26T10:33:01.343Z,41.86
2019-05-26T10:35:30.961Z,40.06
2019-05-26T10:38:00.613Z,40.72
2019-05-26T10:40:30.238Z,40.28
2019-05-26T10:42:59.893Z,39.57
2019-05-26T10:45:29.627Z,40.48
2019-05-26T10:47:59.273Z,39.48
2019-05-26T10:50:28.891Z,39.25
2019-05-26T10:52:58.547Z,38.36
2019-05-26T10:55:28.269Z,37.39
2019-05-26T10:57:57.912Z,37.29
2019-05-26T11:00:27.641Z,38.24
2019-05-26T11:02:57.262Z,38.40
2019-05-26T11:05:26.917Z,38.41
2019-05-26T11:07:56.555Z,35.92
2019-05-26T11:10:26.211Z,37.21
2019-05-26T11:12:55.839Z,37.23
2019-05-26T11:15:25.568Z,37.82
2019-05-26T11:17:55.289Z,38.30
2019-05-26T11:20:24.999Z,38.23
2019-05-26T11:22:55.028Z,38.64
2019-05-26T11:25:24.682Z,39.60
2019-05-26T11:27:54.309Z,40.30
2019-05-26T11:30:24.400Z,38.98
2019-05-26T11:32:54.035Z,39.21
2019-05-26T11:35:23.689Z,39.23
2019-05-26T11:37:53.366Z,39.00
2019-05-26T11:40:23.583Z,39.68
2019-05-26T11:42:53.709Z,39.68
2019-05-26T11:45:23.432Z,38.39
2019-05-26T11:47:53.053Z,39.39
2019-05-26T11:50:22.838Z,40.53
2019-05-26T11:52:52.477Z,41.39
2019-05-26T11:55:22.129Z,40.71
2019-05-26T11:57:51.753Z,40.91
2019-05-26T12:00:21.953Z,40.29
2019-05-26T12:02:51.587Z,41.83
2019-05-26T12:05:21.227Z,41.27
2019-05-26T12:07:50.903Z,40.98
2019-05-26T12:10:21.351Z,40.26
2019-05-26T12:12:50.977Z,39.72
2019-05-26T12:15:20.794Z,39.54
2019-05-26T12:17:50.421Z,39.51
2019-05-26T12:20:20.243Z,40.17
2019-05-26T12:22:49.976Z,39.00
2019-05-26T12:25:19.752Z,38.02
2019-05-26T12:27:49.372Z,39.16
2019-05-26T12:30:19.260Z,38.51
2019-05-26T12:32:48.946Z,39.37
2019-05-26T12:35:19.397Z,39.53
2019-05-26T12:37:49.053Z,39.51
2019-05-26T12:40:19.185Z,39.48
2019-05-26T12:42:49.208Z,38.15
2019-05-26T12:45:19.682Z,38.78
2019-05-26T12:47:49.315Z,38.20
2019-05-26T12:50:19.114Z,38.27
2019-05-26T12:52:48.741Z,39.68
2019-05-26T12:55:18.452Z,38.04
2019-05-26T12:57:48.097Z,39.57
2019-05-26T13:00:18.183Z,37.42
2019-05-26T13:02:48.483Z,38.20
2019-05-26T13:05:18.783Z,38.15
2019-05-26T13:07:48.472Z,38.67
2019-05-26T13:10:18.869Z,38.75
2019-05-26T13:12:48.494Z,39.38
2019-05-26T13:15:18.785Z,38.49
2019-05-26T13:17:48.412Z,38.25
2019-05-26T13:20:18.703Z,38.13
2019-05-26T13:22:49.430Z,37.61
2019-05-26T13:25:20.222Z,37.81
2019-05-26T13:27:49.960Z,37.61
2019-05-26T13:30:24.888Z,37.78
2019-05-26T13:32:54.514Z,37.75
2019-05-26T13:35:24.163Z,38.17
2019-05-26T13:37:53.794Z,37.23
2019-05-26T13:40:23.577Z,37.36
2019-05-26T13:42:53.602Z,38.26
2019-05-26T13:45:23.698Z,37.98
2019-05-26T13:47:53.351Z,37.28
2019-05-26T13:50:24.942Z,37.81
2019-05-26T13:52:54.561Z,37.10
2019-05-26T13:55:24.316Z,38.68
2019-05-26T13:57:53.966Z,37.95
2019-05-26T14:00:24.152Z,37.52
2019-05-26T14:02:53.874Z,38.21
2019-05-26T14:05:23.493Z,37.51
2019-05-26T14:07:53.252Z,37.35
2019-05-26T14:10:34.403Z,36.83
2019-05-26T14:13:05.284Z,37.35
2019-05-26T14:15:38.537Z,37.17
2019-05-26T14:18:06.481Z,37.21
2019-05-26T14:20:38.046Z,38.31
2019-05-26T14:23:09.052Z,37.07
2019-05-26T14:25:38.899Z,36.16
2019-05-26T14:28:08.612Z,36.93
2019-05-26T14:30:38.306Z,37.00
2019-05-26T14:33:07.963Z,37.26
2019-05-26T14:35:37.586Z,36.86
2019-05-26T14:38:07.244Z,36.46
2019-05-26T14:40:36.871Z,36.97
2019-05-26T14:43:07.040Z,36.78
2019-05-26T14:45:52.056Z,37.36
2019-05-26T14:48:08.187Z,36.81
2019-05-26T14:50:40.638Z,37.02
2019-05-26T14:53:09.163Z,37.18
2019-05-26T14:55:38.861Z,38.10
2019-05-26T14:58:15.517Z,38.54
2019-05-26T15:00:39.931Z,38.76
2019-05-26T15:03:10.077Z,39.29
2019-05-26T15:05:39.708Z,38.61
2019-05-26T15:08:09.378Z,39.19
2019-05-26T15:10:39.006Z,39.40
2019-05-26T15:13:08.656Z,39.18
2019-05-26T15:15:38.308Z,38.00
2019-05-26T15:18:08.012Z,38.43
2019-05-26T15:20:37.691Z,38.79
2019-05-26T15:23:07.330Z,39.03
2019-05-26T15:25:36.941Z,38.03
2019-05-26T15:28:06.592Z,37.73
2019-05-26T15:30:36.216Z,38.46
2019-05-26T15:33:05.868Z,37.45
2019-05-26T15:35:35.518Z,37.87
2019-05-26T15:38:05.167Z,39.75
2019-05-26T15:40:34.785Z,37.42
2019-05-26T15:43:04.978Z,38.09
2019-05-26T15:45:34.605Z,38.44
2019-05-26T15:48:04.405Z,37.98
2019-05-26T15:50:34.025Z,37.81
2019-05-26T15:53:03.679Z,36.92
2019-05-26T15:55:33.307Z,36.43
2019-05-26T15:58:02.957Z,37.34
2019-05-26T16:00:32.581Z,37.70
2019-05-26T16:03:02.229Z,39.27
2019-05-26T16:05:32.017Z,39.55
2019-05-26T16:08:01.678Z,40.51
2019-05-26T16:10:31.397Z,40.42
2019-05-26T16:13:01.050Z,40.29
2019-05-26T16:15:30.784Z,40.43
2019-05-26T16:18:00.444Z,39.93
2019-05-26T16:20:30.093Z,39.56
2019-05-26T16:22:59.723Z,40.32
2019-05-26T16:25:29.353Z,40.69
2019-05-26T16:27:59.003Z,40.91
2019-05-26T16:30:28.620Z,40.80
2019-05-26T16:32:58.279Z,41.17
2019-05-26T16:35:27.903Z,41.06
2019-05-26T16:37:57.560Z,41.06
2019-05-26T16:40:27.183Z,41.45
2019-05-26T16:42:56.834Z,42.65
2019-05-26T16:45:26.456Z,42.58
2019-05-26T16:47:56.109Z,43.68
2019-05-26T16:50:25.809Z,44.30
2019-05-26T16:52:55.480Z,44.37
2019-05-26T16:55:25.103Z,43.51
2019-05-26T16:57:54.772Z,44.00
2019-05-26T17:00:24.568Z,44.40
2019-05-26T17:02:54.218Z,45.15
2019-05-26T17:05:25.459Z,43.87
2019-05-26T17:07:55.363Z,44.39
2019-05-26T17:10:25.043Z,44.66
2019-05-26T17:12:54.675Z,43.65
2019-05-26T17:15:24.326Z,44.06
2019-05-26T17:17:53.980Z,44.61
2019-05-26T17:20:23.767Z,43.90
2019-05-26T17:22:53.913Z,43.90
2019-05-26T17:25:23.588Z,44.08
2019-05-26T17:27:53.197Z,43.35
2019-05-26T17:30:23.133Z,42.76
2019-05-26T17:32:52.753Z,42.79
2019-05-26T17:35:22.405Z,42.79
2019-05-26T17:37:52.077Z,43.18
2019-05-26T17:40:23.686Z,43.65
2019-05-26T17:42:53.877Z,43.44
2019-05-26T17:45:23.597Z,43.30
2019-05-26T17:47:53.233Z,43.99
2019-05-26T17:50:22.948Z,44.32
2019-05-26T17:52:52.602Z,43.73
2019-05-26T17:55:22.454Z,44.35
2019-05-26T17:57:52.078Z,44.49
2019-05-26T18:00:21.801Z,44.67
2019-05-26T18:02:51.836Z,45.05
2019-05-26T18:05:21.656Z,45.42
2019-05-26T18:07:51.289Z,45.39
2019-05-26T18:10:21.304Z,45.96
2019-05-26T18:12:50.934Z,46.20
2019-05-26T18:15:20.821Z,46.43
2019-05-26T18:17:50.450Z,46.44
2019-05-26T18:20:20.243Z,46.56
2019-05-26T18:22:50.410Z,47.40
2019-05-26T18:25:20.055Z,47.92
2019-05-26T18:27:49.681Z,47.85
2019-05-26T18:30:19.565Z,47.48
2019-05-26T18:32:49.211Z,47.71
2019-05-26T18:35:19.255Z,47.91
2019-05-26T18:37:52.118Z,47.87
2019-05-26T18:40:20.302Z,48.88
2019-05-26T18:42:49.934Z,48.73
2019-05-26T18:45:19.583Z,48.93
2019-05-26T18:48:01.918Z,49.06
2019-05-26T18:50:20.567Z,48.94
2019-05-26T18:52:50.198Z,48.95
2019-05-26T18:55:19.862Z,49.13
2019-05-26T18:57:49.485Z,49.43
2019-05-26T19:00:19.410Z,49.86
2019-05-26T19:02:49.594Z,49.81
2019-05-26T19:05:32.454Z,50.04
2019-05-26T19:07:50.770Z,50.17
2019-05-26T19:10:20.862Z,50.06
2019-05-26T19:12:50.486Z,50.38
2019-05-26T19:15:20.514Z,50.21
2019-05-26T19:17:50.183Z,50.03
2019-05-26T19:20:19.872Z,50.65
2019-05-26T19:22:52.983Z,50.84
2019-05-26T19:25:20.836Z,50.39
2019-05-26T19:27:51.039Z,50.68
2019-05-26T19:30:20.956Z,51.11
2019-05-26T19:32:50.616Z,50.88
2019-05-26T19:35:20.264Z,51.50
2019-05-26T19:37:49.993Z,51.29
2019-05-26T19:40:19.879Z,51.60
2019-05-26T19:42:50.221Z,51.14
2019-05-26T19:45:19.872Z,51.29
2019-05-26T19:47:49.521Z,51.10
2019-05-26T19:50:19.214Z,51.41
2019-05-26T19:52:50.125Z,51.80
2019-05-26T19:55:24.518Z,51.97
2019-05-26T19:57:54.280Z,51.88
2019-05-26T20:00:24.514Z,52.20
2019-05-26T20:02:55.480Z,53.16
2019-05-26T20:05:25.511Z,53.00
2019-05-26T20:07:55.551Z,52.87
2019-05-26T20:10:25.252Z,52.37
2019-05-26T20:12:54.925Z,52.60
2019-05-26T20:15:24.582Z,52.44
2019-05-26T20:17:54.252Z,52.73
2019-05-26T20:20:23.998Z,53.17
2019-05-26T20:22:54.642Z,53.45
2019-05-26T20:25:24.283Z,54.22
2019-05-26T20:27:53.922Z,54.18
2019-05-26T20:30:23.713Z,54.58
2019-05-26T20:32:53.333Z,54.79
2019-05-26T20:35:22.962Z,55.17
2019-05-26T20:37:52.629Z,55.34
2019-05-26T20:40:22.267Z,55.92
2019-05-26T20:42:51.929Z,55.84
2019-05-26T20:45:21.553Z,56.60
2019-05-26T20:47:51.260Z,57.78
2019-05-26T20:50:29.290Z,58.72
2019-05-26T20:52:52.850Z,58.19
2019-05-26T20:55:22.446Z,58.17
2019-05-26T20:57:52.131Z,58.14
2019-05-26T21:00:22.008Z,60.28
2019-05-26T21:02:51.663Z,59.03
2019-05-26T21:05:21.369Z,58.44
2019-05-26T21:07:51.019Z,58.86
2019-05-26T21:10:20.729Z,60.18
2019-05-26T21:12:50.498Z,59.34
2019-05-26T21:15:20.533Z,60.98
2019-05-26T21:17:50.294Z,62.17
2019-05-26T21:20:20.569Z,61.84
2019-05-26T21:22:50.960Z,61.05
2019-05-26T21:25:20.731Z,61.45
2019-05-26T21:27:50.395Z,63.18
2019-05-26T21:30:20.358Z,61.31
2019-05-26T21:32:50.031Z,61.00
2019-05-26T21:35:19.722Z,62.37
2019-05-26T21:37:49.691Z,62.63
2019-05-26T21:40:19.383Z,62.69
2019-05-26T21:42:49.040Z,63.03
2019-05-26T21:45:18.668Z,64.00
2019-05-26T21:47:48.391Z,64.78
2019-05-26T21:50:18.389Z,64.35
2019-05-26T21:52:48.150Z,62.05
2019-05-26T21:55:19.469Z,61.82
2019-05-26T21:57:49.118Z,61.19
2019-05-26T22:00:22.033Z,61.17
2019-05-26T22:02:51.804Z,60.79
2019-05-26T22:05:21.423Z,61.24
2019-05-26T22:07:51.197Z,61.82
2019-05-26T22:10:22.455Z,61.83
2019-05-26T22:12:52.110Z,63.94
2019-05-26T22:15:21.769Z,62.12
2019-05-26T22:17:51.406Z,62.17
2019-05-26T22:20:21.157Z,61.61
2019-05-26T22:22:51.698Z,61.61
2019-05-26T22:25:21.536Z,61.70
2019-05-26T22:27:51.173Z,61.41
2019-05-26T22:30:21.160Z,61.68
2019-05-26T22:32:50.785Z,61.47
2019-05-26T22:35:20.444Z,61.69
2019-05-26T22:37:50.133Z,61.84
2019-05-26T22:40:19.997Z,62.55
2019-05-26T22:42:50.129Z,63.59
2019-05-26T22:45:20.055Z,63.79
2019-05-26T22:47:49.690Z,64.55
2019-05-26T22:50:19.876Z,63.22
2019-05-26T22:52:49.805Z,64.05
2019-05-26T22:55:19.789Z,64.25
2019-05-26T22:57:49.518Z,64.61
2019-05-26T23:00:20.907Z,64.42
2019-05-26T23:02:51.046Z,64.50
2019-05-26T23:05:20.806Z,63.63
2019-05-26T23:07:50.370Z,63.89
2019-05-26T23:10:20.095Z,63.83
2019-05-26T23:12:51.203Z,63.79
2019-05-26T23:15:22.089Z,64.23
2019-05-26T23:17:52.131Z,63.47
2019-05-26T23:20:22.167Z,63.10
2019-05-26T23:22:53.235Z,63.47
2019-05-26T23:25:24.336Z,63.78
2019-05-26T23:27:55.399Z,63.97
2019-05-26T23:30:26.487Z,64.11
2019-05-26T23:32:57.549Z,63.91
2019-05-26T23:35:28.700Z,64.07
2019-05-26T23:37:59.762Z,64.70
2019-05-26T23:40:30.861Z,66.24
2019-05-26T23:43:02.017Z,65.87
2019-05-26T23:45:32.024Z,65.89
2019-05-26T23:48:01.644Z,65.91
2019-05-26T23:50:31.224Z,66.13
2019-05-26T23:53:00.778Z,67.24
2019-05-26T23:55:30.526Z,66.30
2019-05-26T23:58:00.454Z,66.13
